Time;durP1;ratioP1;P1;durP2;ratioP2;P2;SDS_P1;SDS_P2;PMS_P1;PMS_P2;Temp;Humidity;BMP_temperature;BMP_pressure;BME280_temperature;BME280_humidity;BME280_pressure;Samples;Min_cycle;Max_cycle;Signal;HPM_P1;HPM_P2
2023/01/03 00:07:32;;;;;;;;;12.00;10.33;;;;;9.31;100.00;102171.69;4923557;28;45787;-81
2023/01/03 00:13:46;;;;;;;;;13.00;11.67;;;;;9.06;100.00;102137.91;4826452;29;45851;-81
2023/01/03 00:19:35;;;;;;;;;11.00;9.67;;;;;9.25;100.00;102180.56;4869438;28;45903;-79
2023/01/03 00:22:04;;;;;;;;;11.33;9.67;;;;;9.18;100.00;102161.22;4912016;28;45821;-79
2023/01/03 00:24:31;;;;;;;;;11.33;10.00;;;;;9.21;100.00;102177.31;4914811;28;45407;-81
2023/01/03 00:27:00;;;;;;;;;12.00;10.33;;;;;9.15;100.00;102159.66;4920877;28;46729;-79
2023/01/03 00:29:29;;;;;;;;;12.33;11.33;;;;;9.18;100.00;102169.44;4917795;28;45848;-81
2023/01/03 00:31:55;;;;;;;;;13.33;10.00;;;;;9.17;100.00;102164.97;4913727;28;45494;-80
2023/01/03 00:34:21;;;;;;;;;17.33;12.33;;;;;9.17;100.00;102167.69;4916808;28;45638;-81
2023/01/03 00:36:48;;;;;;;;;13.00;12.00;;;;;9.15;100.00;102162.41;4916589;28;45992;-82
2023/01/03 00:39:17;;;;;;;;;12.00;10.33;;;;;9.13;100.00;102161.72;4915521;28;45927;-80
2023/01/03 00:41:43;;;;;;;;;12.00;9.00;;;;;9.15;100.00;102167.03;4934618;28;45822;-81
2023/01/03 00:44:10;;;;;;;;;10.67;9.67;;;;;9.14;100.00;102165.28;4916033;28;45839;-81
2023/01/03 00:46:37;;;;;;;;;7.33;7.33;;;;;9.13;100.00;102161.72;4927335;28;45413;-80
2023/01/03 00:49:08;;;;;;;;;11.00;8.33;;;;;9.10;100.00;102167.50;4917304;28;45288;-80
2023/01/03 00:51:36;;;;;;;;;11.00;6.00;;;;;9.09;100.00;102162.22;4917416;28;45396;-79
2023/01/03 00:54:04;;;;;;;;;6.33;6.00;;;;;9.07;100.00;102159.63;4917240;28;45757;-80
2023/01/03 00:56:34;;;;;;;;;8.33;6.00;;;;;9.06;100.00;102157.06;4900619;28;46395;-82
2023/01/03 00:59:03;;;;;;;;;4.67;4.67;;;;;9.01;100.00;102158.41;4906963;28;45711;-80
2023/01/03 01:01:32;;;;;;;;;8.00;6.67;;;;;8.96;100.00;102149.81;4913762;28;45795;-79
2023/01/03 01:04:21;;;;;;;;;6.67;6.00;;;;;9.06;100.00;102157.06;4916996;28;45514;-80
2023/01/03 01:06:59;;;;;;;;;4.33;4.33;;;;;9.06;100.00;102165.28;4907050;28;45842;-80
2023/01/03 01:09:30;;;;;;;;;4.00;4.00;;;;;9.05;100.00;102158.06;4915956;28;45935;-79
2023/01/03 01:11:56;;;;;;;;;4.67;4.33;;;;;8.97;100.00;102162.47;4931590;28;45497;-80
2023/01/03 01:14:26;;;;;;;;;11.67;7.00;;;;;8.99;100.00;102163.16;4926795;28;45561;-80
2023/01/03 01:16:56;;;;;;;;;6.33;5.00;;;;;8.96;100.00;102166.22;4924213;28;45453;-79
2023/01/03 01:19:27;;;;;;;;;6.00;5.00;;;;;8.93;100.00;102166.56;4930360;28;45446;-80
2023/01/03 01:21:54;;;;;;;;;10.00;6.67;;;;;8.89;100.00;102154.25;4942218;28;45495;-81
2023/01/03 01:24:20;;;;;;;;;5.00;3.67;;;;;8.88;100.00;102157.13;4949729;28;45647;-81
2023/01/03 01:26:47;;;;;;;;;6.67;3.00;;;;;8.91;100.00;102165.88;4927106;28;46279;-81
2023/01/03 01:29:14;;;;;;;;;5.00;4.00;;;;;8.90;100.00;102166.03;4939656;28;45452;-81
2023/01/03 01:31:44;;;;;;;;;3.33;3.33;;;;;8.87;100.00;102160.91;4947069;28;45914;-80
2023/01/03 01:34:12;;;;;;;;;7.00;5.00;;;;;8.76;100.00;102153.84;4927239;28;45439;-81
2023/01/03 01:36:41;;;;;;;;;5.67;4.33;;;;;8.86;100.00;102170.97;4934348;28;45631;-80
2023/01/03 01:39:15;;;;;;;;;4.33;3.33;;;;;8.86;100.00;102173.69;4933128;28;45793;-80
2023/01/03 01:45:17;;;;;;;;;5.33;4.00;;;;;8.86;100.00;102176.44;4933749;28;45483;-81
2023/01/03 01:47:58;;;;;;;;;5.67;4.33;;;;;8.83;100.00;102174.91;4934378;28;45798;-82
2023/01/03 01:50:42;;;;;;;;;6.00;4.00;;;;;8.82;100.00;102177.78;4934562;28;45434;-81
2023/01/03 01:53:16;;;;;;;;;4.67;4.33;;;;;8.81;100.00;102178.81;4934002;28;45812;-81
2023/01/03 01:55:56;;;;;;;;;7.00;5.67;;;;;8.78;100.00;102179.97;4937603;28;45476;-81
2023/01/03 01:58:30;;;;;;;;;6.00;4.67;;;;;8.71;100.00;102172.59;4933829;28;46632;-81
2023/01/03 02:01:02;;;;;;;;;7.00;5.67;;;;;8.71;100.00;102178.06;4924160;28;45724;-81
2023/01/03 02:03:35;;;;;;;;;5.00;5.00;;;;;8.72;100.00;102175.16;4926194;28;45376;-81
2023/01/03 02:06:04;;;;;;;;;7.00;6.00;;;;;8.76;100.00;102183.91;4933170;28;45712;-79
2023/01/03 02:08:43;;;;;;;;;4.67;4.67;;;;;8.75;100.00;102191.25;4934407;28;46647;-81
2023/01/03 02:11:20;;;;;;;;;5.33;5.33;;;;;8.72;100.00;102191.56;4933487;28;45835;-81
2023/01/03 02:14:08;;;;;;;;;6.00;3.67;;;;;8.73;100.00;102192.44;4935196;28;45797;-80
2023/01/03 02:17:19;;;;;;;;;6.00;3.67;;;;;8.73;100.00;102193.28;4933605;28;45371;-79
2023/01/03 02:20:32;;;;;;;;;6.33;3.67;;;;;8.74;100.00;102194.16;4927471;28;45471;-80
2023/01/03 02:23:22;;;;;;;;;6.00;5.00;;;;;8.64;100.00;102195.13;4927602;28;45478;-80
2023/01/03 02:26:01;;;;;;;;;6.67;6.33;;;;;8.73;100.00;102208.84;4934000;28;45719;-79
2023/01/03 02:29:14;;;;;;;;;6.00;3.00;;;;;8.71;100.00;102202.66;4947414;28;46184;-80
2023/01/03 02:32:33;;;;;;;;;4.00;4.00;;;;;8.66;100.00;102203.16;4934301;28;46453;-81
2023/01/03 02:35:37;;;;;;;;;5.00;5.00;;;;;8.63;100.00;102198.84;4945150;28;45523;-80
2023/01/03 02:38:21;;;;;;;;;4.33;4.33;;;;;8.65;100.00;102209.63;4868487;28;45584;-79
2023/01/03 02:41:08;;;;;;;;;4.00;4.00;;;;;8.64;100.00;102200.59;4948733;28;45702;-80
2023/01/03 02:44:13;;;;;;;;;6.33;6.00;;;;;8.63;100.00;102204.31;4921676;28;45648;-79
2023/01/03 02:46:58;;;;;;;;;6.67;5.67;;;;;8.60;100.00;102204.66;4930182;28;45846;-80
2023/01/03 02:49:31;;;;;;;;;5.00;4.67;;;;;8.62;100.00;102207.22;4921785;28;45764;-79
2023/01/03 02:52:05;;;;;;;;;4.67;4.67;;;;;8.63;100.00;102204.31;4939724;28;46419;-80
2023/01/03 02:54:59;;;;;;;;;5.00;3.33;;;;;8.62;100.00;102202.63;4945041;28;46477;-79
2023/01/03 02:57:46;;;;;;;;;5.00;4.67;;;;;8.59;100.00;102200.22;4936655;28;45531;-79
2023/01/03 03:00:19;;;;;;;;;4.00;4.00;;;;;8.54;100.00;102194.34;4934442;28;45518;-79
2023/01/03 03:02:56;;;;;;;;;3.00;3.00;;;;;8.72;100.00;102210.72;4936605;28;45824;-80
2023/01/03 03:05:35;;;;;;;;;3.00;3.00;;;;;8.79;100.00;102202.75;4944378;28;45880;-80
2023/01/03 03:08:07;;;;;;;;;5.67;3.00;;;;;8.85;100.00;102202.09;4938131;28;45475;-81
2023/01/03 03:13:34;;;;;;;;;3.67;2.33;;;;;8.93;100.00;102210.34;4937417;28;45423;-80
2023/01/03 03:16:13;;;;;;;;;5.00;4.00;;;;;8.94;100.00;102201.13;4938391;28;45566;-78
2023/01/03 03:18:39;;;;;;;;;4.33;3.33;;;;;9.07;100.00;102197.06;4935267;28;45839;-81
2023/01/03 03:26:57;;;;;;;;;7.00;4.33;;;;;8.96;100.00;102200.94;4909733;28;45736;-78
2023/01/03 03:29:27;;;;;;;;;4.67;4.67;;;;;8.98;100.00;102213.47;4919302;28;45609;-78
2023/01/03 03:31:54;;;;;;;;;4.67;4.67;;;;;8.97;100.00;102214.47;4917108;28;45871;-77
2023/01/03 03:34:37;;;;;;;;;4.00;4.00;;;;;8.93;100.00;102214.97;4934323;28;45921;-78
2023/01/03 03:37:21;;;;;;;;;5.00;3.00;;;;;8.92;100.00;102216.84;4915795;28;45833;-78
2023/01/03 03:45:35;;;;;;;;;4.00;3.00;;;;;8.91;100.00;102185.03;4915069;28;45815;-77
2023/01/03 03:51:35;;;;;;;;;7.33;5.00;;;;;9.24;100.00;102207.09;4878636;29;45552;-78
2023/01/03 03:54:11;;;;;;;;;7.67;5.00;;;;;9.29;100.00;102210.19;4923559;28;45780;-78
2023/01/03 03:56:45;;;;;;;;;6.67;4.00;;;;;9.32;100.00;102214.47;4927416;28;45956;-77
2023/01/03 03:59:16;;;;;;;;;4.00;4.00;;;;;9.33;100.00;102217.03;4925691;28;45580;-77
2023/01/03 04:01:44;;;;;;;;;6.67;6.00;;;;;9.33;100.00;102208.84;4895253;28;45501;-77
2023/01/03 04:04:18;;;;;;;;;6.00;4.00;;;;;9.39;100.00;102217.44;4925434;28;45553;-78
2023/01/03 04:06:47;;;;;;;;;7.00;6.00;;;;;9.42;100.00;102211.63;4915630;28;45399;-77
2023/01/03 04:09:13;;;;;;;;;7.33;6.67;;;;;9.45;100.00;102208.56;4928032;28;46636;-78
2023/01/03 04:11:40;;;;;;;;;6.00;6.00;;;;;9.41;100.00;102213.47;4934266;28;45792;-79
2023/01/03 04:14:25;;;;;;;;;7.67;6.00;;;;;9.52;100.00;102221.41;4915897;28;45758;-79
2023/01/03 04:17:14;;;;;;;;;;;;;;;;;;;;;
2023/01/03 04:20:20;;;;;;;;;6.00;5.67;;;;;9.57;100.00;102223.66;4921155;28;74327;-78
2023/01/03 04:23:17;;;;;;;;;;;;;;;;;;;;;
2023/01/03 04:26:06;;;;;;;;;5.33;5.33;;;;;9.68;100.00;102230.69;4933411;28;66720;-78
2023/01/03 04:28:37;;;;;;;;;7.00;5.00;;;;;9.73;100.00;102236.56;4907074;28;46593;-78
2023/01/03 04:31:04;;;;;;;;;6.00;4.33;;;;;9.77;100.00;102245.28;4934853;28;46426;-77
2023/01/03 04:33:29;;;;;;;;;6.67;6.67;;;;;9.77;100.00;102246.13;4934853;28;45537;-79
2023/01/03 04:35:55;;;;;;;;;6.00;5.00;;;;;9.82;100.00;102242.88;4912428;28;45469;-78
2023/01/03 04:38:21;;;;;;;;;5.33;4.33;;;;;9.70;100.00;102221.28;4935114;28;45422;-76
2023/01/03 04:40:47;;;;;;;;;8.00;7.33;;;;;9.82;100.00;102235.53;4951516;28;46759;-79
2023/01/03 04:46:04;;;;;;;;;7.00;7.00;;;;;9.87;100.00;102230.41;4932962;28;45591;-77
2023/01/03 04:48:45;;;;;;;;;9.33;7.00;;;;;9.94;100.00;102236.09;4937901;28;45699;-77
2023/01/03 04:55:17;;;;;;;;;;;;;;;;;;;;;
2023/01/03 04:58:50;;;;;;;;;;;;;;;;;;;;;
2023/01/03 05:01:53;;;;;;;;;6.00;6.00;;;;;9.76;100.00;102225.25;4850665;28;74657;-77
2023/01/03 05:05:19;;;;;;;;;8.00;5.00;;;;;9.82;100.00;102235.53;4940736;28;45323;-79
2023/01/03 05:08:21;;;;;;;;;7.00;6.00;;;;;9.94;100.00;102257.13;4853076;29;45897;-78
2023/01/03 05:19:04;;;;;;;;;4.00;4.00;;;;;10.02;100.00;102257.16;4858959;29;45991;-79
2023/01/03 05:25:57;;;;;;;;;8.67;7.00;;;;;10.04;100.00;102272.44;4902354;28;45732;-78
2023/01/03 05:28:48;;;;;;;;;;;;;;;;;;;;;
2023/01/03 05:31:59;;;;;;;;;7.00;5.00;;;;;10.03;100.00;102261.59;4908907;28;74330;-80
2023/01/03 05:44:55;;;;;;;;;6.67;6.00;;;;;9.87;100.00;102251.47;4913960;28;45913;-80
2023/01/03 05:47:36;;;;;;;;;6.00;6.00;;;;;9.76;100.00;102240.81;4908925;28;46056;-79
2023/01/03 05:57:32;;;;;;;;;6.67;4.33;;;;;9.63;100.00;102261.31;4785821;29;45755;-79
2023/01/03 06:07:15;;;;;;;;;4.33;4.00;;;;;9.06;100.00;102248.22;4871301;29;45653;-80
2023/01/03 06:09:53;;;;;;;;;4.00;4.00;;;;;8.84;100.00;102233.19;4881050;28;46780;-80
2023/01/03 06:13:01;;;;;;;;;4.00;4.00;;;;;8.99;100.00;102278.09;4917971;28;46876;-79
2023/01/03 06:19:53;;;;;;;;;5.67;5.00;;;;;8.45;100.00;102228.13;4921527;28;45682;-80
2023/01/03 06:23:50;;;;;;;;;6.33;5.00;;;;;8.71;100.00;102282.00;4875039;29;45852;-82
2023/01/03 06:27:30;;;;;;;;;;;;;;;;;;;;;
2023/01/03 06:30:25;;;;;;;;;6.00;5.00;;;;;8.44;100.00;102281.97;4854326;29;45833;-81
2023/01/03 06:36:53;;;;;;;;;5.00;4.67;;;;;8.32;100.00;102302.28;4886022;28;45951;-79
2023/01/03 06:40:02;;;;;;;;;;;;;;;;;;;;;
2023/01/03 06:43:25;;;;;;;;;7.33;4.00;;;;;8.25;100.00;102313.00;4916981;28;45524;-82
2023/01/03 06:53:51;;;;;;;;;5.33;5.33;;;;;8.13;100.00;102306.88;4882533;29;45469;-82
2023/01/03 06:56:47;;;;;;;;;6.00;5.00;;;;;8.14;100.00;102318.66;4866748;29;45454;-83
2023/01/03 07:06:31;;;;;;;;;7.33;6.00;;;;;8.30;100.00;102323.47;4827182;29;45607;-84
2023/01/03 07:10:00;;;;;;;;;6.00;4.00;;;;;8.33;100.00;102319.56;4866384;29;46273;-84
2023/01/03 07:15:54;;;;;;;;;5.00;5.00;;;;;8.28;100.00;102304.47;4931146;28;45845;-84
2023/01/03 07:28:36;;;;;;;;;8.33;7.00;;;;;8.46;100.00;102344.69;4945447;28;46170;-81
2023/01/03 07:31:12;;;;;;;;;14.00;6.00;;;;;8.46;100.00;102333.75;4927287;28;45316;-81
2023/01/03 07:34:07;;;;;;;;;6.00;5.33;;;;;8.60;100.00;102341.38;4959432;28;45324;-83
2023/01/03 07:37:39;;;;;;;;;7.00;7.00;;;;;8.69;100.00;102338.75;4933110;28;46400;-82
2023/01/03 07:40:31;;;;;;;;;7.00;7.00;;;;;8.69;100.00;102330.53;4890023;28;46316;-81
2023/01/03 07:43:41;;;;;;;;;9.33;7.67;;;;;8.81;100.00;102342.94;4907380;28;45613;-83
2023/01/03 07:47:12;;;;;;;;;8.00;6.00;;;;;8.84;100.00;102359.03;4914949;28;45423;-86
2023/01/03 07:50:03;;;;;;;;;13.00;10.33;;;;;8.62;100.00;102290.16;4924241;28;47089;-84
2023/01/03 07:52:29;;;;;;;;;8.67;7.67;;;;;8.97;100.00;102339.50;4914487;28;45485;-86
2023/01/03 07:55:17;;;;;;;;;9.00;9.00;;;;;8.99;100.00;102334.72;4932738;28;45416;-85
2023/01/03 07:57:45;;;;;;;;;7.00;7.00;;;;;9.23;100.00;102364.13;4956919;28;45228;-84
2023/01/03 08:19:01;;;;;;;;;11.00;9.00;;;;;9.86;100.00;102371.19;4892377;29;45546;-81
2023/01/03 08:22:57;;;;;;;;;;;;;;;;;;;;;
2023/01/03 08:25:34;;;;;;;;;11.00;10.00;;;;;10.08;100.00;102379.84;4856848;29;45583;-82
2023/01/03 08:28:27;;;;;;;;;63.75;48.50;;;;;10.22;100.00;102381.09;4844904;29;45846;-86
2023/01/03 08:31:24;;;;;;;;;33.33;29.33;;;;;10.09;100.00;102351.41;4830863;29;45527;-84
2023/01/03 08:34:20;;;;;;;;;14.33;13.00;;;;;10.28;100.00;102380.41;4808815;29;45458;-85
2023/01/03 08:37:14;;;;;;;;;16.00;9.33;;;;;10.41;100.00;102391.81;4818111;29;45401;-86
2023/01/03 08:43:28;;;;;;;;;15.67;14.00;;;;;10.35;100.00;102356.81;4826012;29;45435;-84
2023/01/03 08:46:34;;;;;;;;;9.33;8.33;;;;;10.64;100.00;102385.69;4875772;29;45588;-85
2023/01/03 08:49:52;;;;;;;;;7.00;7.00;;;;;10.72;100.00;102387.59;4906094;28;45425;-85
2023/01/03 08:53:28;;;;;;;;;;;;;;;;;;;;;
2023/01/03 08:56:53;;;;;;;;;7.00;6.00;;;;;11.04;100.00;102397.72;4861270;29;74177;-85
2023/01/03 09:03:57;;;;;;;;;16.67;14.33;;;;;11.24;100.00;102375.41;4778146;29;45543;-85
2023/01/03 09:07:05;;;;;;;;;7.33;6.33;;;;;11.39;100.00;102370.94;4880929;29;45331;-85
2023/01/03 09:17:42;;;;;;;;;;;;;;;;;;;;;
2023/01/03 09:27:55;;;;;;;;;10.00;10.00;;;;;12.54;100.00;102417.28;4838557;29;45573;-86
2023/01/03 09:31:53;;;;;;;;;;;;;;;;;;;;;
2023/01/03 09:39:05;;;;;;;;;;;;;;;;;;;;;
2023/01/03 09:46:12;;;;;;;;;;;;;;;;;;;;;
2023/01/03 10:07:09;;;;;;;;;;;;;;;;;;;;;
2023/01/03 10:20:39;;;;;;;;;5.33;5.00;;;;;12.32;100.00;102427.19;4824269;29;46161;-85
2023/01/03 10:31:50;;;;;;;;;;;;;;;;;;;;;
2023/01/03 10:45:39;;;;;;;;;;;;;;;;;;;;;
2023/01/03 10:56:35;;;;;;;;;;;;;;;;;;;;;
2023/01/03 11:00:00;;;;;;;;;;;;;;;;;;;;;
2023/01/03 11:03:28;;;;;;;;;6.33;4.67;;;;;13.90;100.00;102420.28;4792495;29;74318;-88
2023/01/03 11:09:57;;;;;;;;;6.67;5.67;;;;;14.27;100.00;102420.38;5012440;28;45907;-73
2023/01/03 11:12:27;;;;;;;;;7.33;6.33;;;;;14.35;100.00;102411.97;5000734;28;45875;-74
2023/01/03 11:14:55;;;;;;;;;10.67;9.33;;;;;14.39;100.00;102421.56;5000835;28;47007;-74
2023/01/03 11:17:22;;;;;;;;;9.67;7.33;;;;;14.36;100.00;102419.22;4994993;28;45509;-76
2023/01/03 11:19:49;;;;;;;;;3.00;3.00;;;;;14.39;100.00;102409.69;5005113;28;45338;-70
2023/01/03 11:22:36;;;;;;;;;7.33;6.33;;;;;14.33;100.00;102416.84;5002240;28;45827;-68
2023/01/03 11:25:36;;;;;;;;;13.33;13.33;;;;;14.25;100.00;102404.00;5014143;28;45974;-74
2023/01/03 11:28:44;;;;;;;;;36.00;33.00;;;;;14.20;100.00;102397.34;5001778;28;45378;-73
2023/01/03 11:31:32;;;;;;;;;7.67;7.00;;;;;14.25;100.00;102404.00;5006470;28;45470;-73
2023/01/03 11:34:31;;;;;;;;;14.33;14.33;;;;;14.29;100.00;102397.03;5000198;28;45697;-73
2023/01/03 11:37:41;;;;;;;;;24.00;18.00;;;;;14.34;100.00;102393.72;5005406;28;45526;-78
2023/01/03 11:40:42;;;;;;;;;28.67;25.33;;;;;14.44;100.00;102398.91;4900208;28;45424;-75
2023/01/03 11:43:38;;;;;;;;;7.67;6.33;;;;;14.55;100.00;102403.94;4913703;28;45612;-80
2023/01/03 11:46:10;;;;;;;;;12.67;9.33;;;;;14.60;100.00;102395.06;4995071;28;45433;-80
2023/01/03 11:49:15;;;;;;;;;4.00;3.33;;;;;14.51;100.00;102388.81;5015176;28;46102;-84
2023/01/03 11:52:15;;;;;;;;;4.67;4.00;;;;;14.34;100.00;102395.59;4951574;28;45810;-85
2023/01/03 11:55:09;;;;;;;;;11.67;9.00;;;;;14.31;100.00;102402.34;4997764;28;45272;-80
2023/01/03 11:57:46;;;;;;;;;8.33;7.00;;;;;14.28;100.00;102388.94;5011492;28;45848;-77
2023/01/03 12:00:35;;;;;;;;;9.00;8.67;;;;;13.98;100.00;102386.22;5007363;28;46183;-76
2023/01/03 12:03:07;;;;;;;;;11.33;9.33;;;;;13.81;100.00;102391.09;5010923;28;45433;-75
2023/01/03 12:05:42;;;;;;;;;10.00;7.67;;;;;13.77;100.00;102384.22;4995954;28;45393;-78
2023/01/03 12:08:11;;;;;;;;;8.33;6.00;;;;;13.66;100.00;102379.19;4995137;28;45438;-73
2023/01/03 12:10:55;;;;;;;;;12.00;8.33;;;;;13.49;100.00;102381.25;5010593;28;45406;-74
2023/01/03 12:13:39;;;;;;;;;15.33;12.00;;;;;13.38;100.00;102366.91;4989201;28;45669;-75
2023/01/03 12:16:38;;;;;;;;;14.67;11.67;;;;;13.22;100.00;102370.66;4989427;28;45918;-75
2023/01/03 12:19:07;;;;;;;;;5.67;5.67;;;;;13.03;100.00;102373.94;5007082;28;45813;-76
2023/01/03 12:21:41;;;;;;;;;3.00;3.00;;;;;12.82;100.00;102363.59;5007737;28;46952;-74
2023/01/03 12:24:18;;;;;;;;;6.67;5.00;;;;;12.66;100.00;102364.56;5006120;28;45777;-76
2023/01/03 12:26:51;;;;;;;;;6.00;4.33;;;;;12.45;100.00;102368.81;4990390;28;45909;-75
2023/01/03 12:29:44;;;;;;;;;5.67;4.00;;;;;12.37;100.00;102357.88;5008258;28;45587;-75
2023/01/03 12:32:17;;;;;;;;;4.00;4.00;;;;;12.30;100.00;102365.13;4979442;28;45538;-77
2023/01/03 12:34:55;;;;;;;;;15.67;14.00;;;;;12.30;100.00;102354.13;4999780;28;45861;-75
2023/01/03 12:37:25;;;;;;;;;8.00;5.00;;;;;12.31;100.00;102356.69;5012389;28;45872;-75
2023/01/03 12:39:55;;;;;;;;;6.00;5.00;;;;;12.38;100.00;102354.09;5000598;28;45890;-75
2023/01/03 12:42:36;;;;;;;;;10.33;6.00;;;;;12.41;100.00;102339.09;4999824;28;46290;-75
2023/01/03 12:45:07;;;;;;;;;5.67;5.67;;;;;12.46;100.00;102344.94;4994828;28;45884;-74
2023/01/03 12:47:50;;;;;;;;;8.33;6.67;;;;;12.47;100.00;102342.00;5006300;28;45843;-75
2023/01/03 12:50:17;;;;;;;;;2.33;2.33;;;;;12.40;100.00;102341.00;5004467;28;45517;-75
2023/01/03 12:52:48;;;;;;;;;3.00;3.00;;;;;12.35;100.00;102324.19;5011236;28;45659;-76
2023/01/03 12:55:30;;;;;;;;;5.33;5.33;;;;;12.47;100.00;102331.00;5012871;28;45303;-75
2023/01/03 12:58:14;;;;;;;;;3.33;3.00;;;;;12.52;100.00;102320.28;5012242;28;45412;-76
2023/01/03 13:00:52;;;;;;;;;7.00;4.00;;;;;12.56;100.00;102322.66;5013044;28;45778;-74
2023/01/03 13:03:39;;;;;;;;;6.00;2.00;;;;;12.59;100.00;102317.66;5022956;28;46213;-75
2023/01/03 13:06:29;;;;;;;;;4.67;4.67;;;;;12.61;100.00;102300.97;5015058;28;45389;-75
2023/01/03 13:09:00;;;;;;;;;4.00;3.00;;;;;12.58;100.00;102299.44;5017555;28;45536;-74
2023/01/03 13:11:41;;;;;;;;;5.67;2.33;;;;;12.59;100.00;102314.03;5018534;28;45694;-76
2023/01/03 13:14:24;;;;;;;;;16.00;11.33;;;;;12.57;100.00;102302.38;5005394;28;45852;-74
2023/01/03 13:16:52;;;;;;;;;5.33;4.33;;;;;12.57;100.00;102299.63;5012800;28;45698;-77
2023/01/03 13:19:20;;;;;;;;;6.67;6.67;;;;;12.63;100.00;102304.38;4992668;28;45718;-76
2023/01/03 13:21:52;;;;;;;;;6.33;4.67;;;;;12.73;100.00;102296.72;5022581;28;45766;-73
2023/01/03 13:24:41;;;;;;;;;7.00;5.67;;;;;12.73;100.00;102310.50;5005992;28;45544;-78
2023/01/03 13:27:24;;;;;;;;;3.33;3.33;;;;;12.80;100.00;102310.59;5002435;28;45753;-77
2023/01/03 13:29:50;;;;;;;;;7.67;4.33;;;;;12.86;100.00;102309.88;5001772;28;45715;-69
2023/01/03 13:32:21;;;;;;;;;7.00;4.00;;;;;12.82;100.00;102305.78;5000044;28;45692;-79
2023/01/03 13:34:53;;;;;;;;;10.00;9.00;;;;;12.81;100.00;102310.41;5005516;28;48028;-80
2023/01/03 13:37:23;;;;;;;;;3.33;3.33;;;;;12.73;100.00;102293.97;5016246;28;45643;-70
2023/01/03 13:39:48;;;;;;;;;5.67;4.33;;;;;12.85;100.00;102306.25;5011050;28;45514;-68
2023/01/03 13:42:37;;;;;;;;;6.67;3.00;;;;;12.80;100.00;102294.94;5004599;28;45304;-70
2023/01/03 13:45:16;;;;;;;;;4.67;3.33;;;;;12.80;100.00;102299.59;4983932;28;48438;-70
2023/01/03 13:47:47;;;;;;;;;3.33;3.33;;;;;12.78;100.00;102294.25;5003944;28;45468;-69
2023/01/03 13:50:32;;;;;;;;;4.33;4.00;;;;;12.75;100.00;102297.38;4998424;28;45460;-70
2023/01/03 13:53:02;;;;;;;;;5.00;5.00;;;;;12.75;100.00;102294.63;5000328;28;45695;-70
2023/01/03 13:55:38;;;;;;;;;7.33;5.33;;;;;12.69;100.00;102295.38;5009182;28;47265;-69
2023/01/03 13:58:22;;;;;;;;;4.67;3.67;;;;;12.67;100.00;102283.72;5012295;28;45625;-70
2023/01/03 14:00:49;;;;;;;;;4.00;3.33;;;;;12.57;100.00;102272.09;5003030;28;45828;-70
2023/01/03 14:03:26;;;;;;;;;3.00;3.00;;;;;12.46;100.00;102277.00;4993865;28;45830;-69
2023/01/03 14:06:10;;;;;;;;;4.33;4.00;;;;;12.44;100.00;102268.06;4998497;28;45707;-69
2023/01/03 14:09:22;;;;;;;;;3.67;3.67;;;;;12.34;100.00;102275.72;5008148;28;45366;-70
2023/01/03 14:12:02;;;;;;;;;6.00;5.67;;;;;12.20;100.00;102269.09;4979006;28;45701;-69
2023/01/03 14:14:33;;;;;;;;;4.33;3.00;;;;;12.07;100.00;102263.34;4981679;28;45825;-69
2023/01/03 14:17:02;;;;;;;;;5.00;3.00;;;;;12.00;100.00;102266.78;4994564;28;45569;-70
2023/01/03 14:19:34;;;;;;;;;3.67;3.33;;;;;11.95;100.00;102263.75;5007151;28;46390;-74
2023/01/03 14:22:04;;;;;;;;;7.67;3.00;;;;;11.94;100.00;102269.44;5010060;28;45435;-75
2023/01/03 14:24:32;;;;;;;;;6.33;4.00;;;;;11.93;100.00;102270.47;5005888;28;45482;-74
2023/01/03 14:27:10;;;;;;;;;3.67;3.67;;;;;11.98;100.00;102268.03;5013138;28;45435;-69
2023/01/03 14:29:37;;;;;;;;;3.67;3.67;;;;;11.96;100.00;102272.84;5013552;28;45311;-67
2023/01/03 14:32:03;;;;;;;;;4.33;3.33;;;;;11.92;100.00;102264.06;5009958;28;45377;-74
2023/01/03 14:34:40;;;;;;;;;3.00;3.00;;;;;11.89;100.00;102247.94;5006038;28;45442;-69
2023/01/03 14:37:12;;;;;;;;;9.00;5.00;;;;;11.82;100.00;102242.28;5014729;28;46369;-68
2023/01/03 14:39:37;;;;;;;;;1.00;1.00;;;;;11.79;100.00;102248.16;5011514;28;45391;-71
2023/01/03 14:42:05;;;;;;;;;2.00;2.00;;;;;11.75;100.00;102244.06;5001527;28;45660;-69
2023/01/03 14:44:33;;;;;;;;;7.67;4.33;;;;;11.73;100.00;102237.88;4998299;28;45751;-72
2023/01/03 14:47:02;;;;;;;;;3.33;2.00;;;;;11.68;100.00;102237.59;4998220;28;46962;-72
2023/01/03 14:49:33;;;;;;;;;3.00;3.00;;;;;11.67;100.00;102233.13;4999218;28;45591;-72
2023/01/03 14:52:06;;;;;;;;;3.00;3.00;;;;;11.58;100.00;102243.28;5002684;28;45487;-71
2023/01/03 14:54:33;;;;;;;;;3.33;2.33;;;;;11.55;100.00;102245.53;4995484;28;45681;-71
2023/01/03 14:57:00;;;;;;;;;3.33;2.33;;;;;11.48;100.00;102249.00;5010296;28;46390;-69
2023/01/03 14:59:26;;;;;;;;;3.00;2.00;;;;;11.43;100.00;102237.69;4996765;28;45317;-70
2023/01/03 15:01:52;;;;;;;;;7.00;6.00;;;;;11.37;100.00;102230.16;5000607;28;45761;-68
2023/01/03 15:04:17;;;;;;;;;7.33;4.33;;;;;11.39;100.00;102249.19;5008695;28;45591;-70
2023/01/03 15:07:01;;;;;;;;;6.33;3.33;;;;;11.36;100.00;102244.94;4997692;28;46322;-71
2023/01/03 15:09:33;;;;;;;;;4.33;3.33;;;;;11.32;100.00;102243.56;4996208;28;45379;-72
2023/01/03 15:12:03;;;;;;;;;2.33;2.00;;;;;11.28;100.00;102239.47;4993851;28;45361;-69
2023/01/03 15:14:34;;;;;;;;;6.00;3.00;;;;;11.22;100.00;102231.94;4997577;28;45759;-78
2023/01/03 15:17:09;;;;;;;;;5.67;3.33;;;;;11.21;100.00;102227.47;5002811;28;46981;-76
2023/01/03 15:19:37;;;;;;;;;6.00;4.00;;;;;11.17;100.00;102229.72;4994444;28;45658;-74
2023/01/03 15:22:14;;;;;;;;;4.67;3.67;;;;;11.07;100.00;102218.06;4996625;28;45829;-69
2023/01/03 15:24:43;;;;;;;;;4.00;4.00;;;;;11.02;100.00;102224.09;5011333;28;45535;-70
2023/01/03 15:27:37;;;;;;;;;6.00;5.00;;;;;10.98;100.00;102222.72;5012745;28;46722;-72
2023/01/03 15:30:29;;;;;;;;;7.67;6.00;;;;;10.94;100.00;102218.63;5012402;28;45460;-71
2023/01/03 15:33:17;;;;;;;;;6.00;4.67;;;;;10.92;100.00;102215.19;4989235;28;45444;-75
2023/01/03 15:35:42;;;;;;;;;4.00;4.00;;;;;10.84;100.00;102202.34;5011405;28;45980;-77
2023/01/03 15:38:25;;;;;;;;;5.67;4.67;;;;;10.88;100.00;102217.44;5011167;28;48683;-76
2023/01/03 15:40:50;;;;;;;;;8.67;4.33;;;;;10.84;100.00;102213.34;5005829;28;45560;-75
2023/01/03 15:43:22;;;;;;;;;7.00;6.00;;;;;10.78;100.00;102206.66;5007044;28;45380;-76
2023/01/03 15:46:09;;;;;;;;;7.33;4.33;;;;;10.76;100.00;102211.47;4996330;28;45888;-77
2023/01/03 15:48:35;;;;;;;;;5.33;4.33;;;;;10.76;100.00;102216.94;5018656;28;45627;-73
2023/01/03 15:51:02;;;;;;;;;7.00;4.00;;;;;10.76;100.00;102213.31;5013483;28;45548;-74
2023/01/03 15:53:31;;;;;;;;;5.33;4.00;;;;;10.72;100.00;102214.72;5008567;28;45523;-75
2023/01/03 15:56:11;;;;;;;;;8.00;4.00;;;;;10.71;100.00;102208.38;5008204;28;45329;-75
2023/01/03 15:58:38;;;;;;;;;6.33;4.67;;;;;10.71;100.00;102211.09;5006945;28;46209;-74
2023/01/03 16:01:05;;;;;;;;;4.00;4.00;;;;;10.72;100.00;102206.50;5010553;28;45351;-75
2023/01/03 16:03:33;;;;;;;;;6.00;4.67;;;;;10.72;100.00;102209.25;5012216;28;45659;-75
2023/01/03 16:05:58;;;;;;;;;5.00;5.00;;;;;10.70;100.00;102198.44;5012214;28;45862;-74
2023/01/03 16:08:27;;;;;;;;;0.00;0.00;;;;;10.72;100.00;102207.34;4997359;28;46129;-76
2023/01/03 16:10:54;;;;;;;;;4.00;2.33;;;;;10.72;100.00;102223.81;4996993;28;45682;-73
2023/01/03 16:13:20;;;;;;;;;4.33;3.00;;;;;10.73;100.00;102214.56;5008830;28;45945;-74
2023/01/03 16:15:46;;;;;;;;;5.33;3.00;;;;;10.61;100.00;102185.75;4996792;28;45589;-73
2023/01/03 16:18:20;;;;;;;;;3.00;3.00;;;;;10.77;100.00;102220.53;4995528;28;46669;-74
2023/01/03 16:20:46;;;;;;;;;4.33;3.00;;;;;10.75;100.00;102212.47;5007152;28;45736;-73
2023/01/03 16:23:24;;;;;;;;;3.67;3.67;;;;;10.76;100.00;102208.72;4998836;28;45378;-73
2023/01/03 16:25:49;;;;;;;;;5.00;3.33;;;;;10.76;100.00;102196.88;4999760;28;45690;-72
2023/01/03 16:28:15;;;;;;;;;6.67;4.67;;;;;10.75;100.00;102207.00;5004647;28;46263;-74
2023/01/03 16:30:41;;;;;;;;;7.00;5.00;;;;;10.74;100.00;102205.28;5002931;28;45773;-69
2023/01/03 16:33:19;;;;;;;;;5.33;4.00;;;;;10.76;100.00;102207.84;4994916;28;45881;-71